ADDS TAF Board (Experimental) INFO Settings

IDs: Format: Expanded Condensed

KSAN - San Diego Intl Arpt, CA, US

Issued at 1123 UTC 18 Apr 2015
Updated at: 1138 UTC 18 Apr 2015
Time1051Z 18/12Z 18/13Z 18/14Z 18/15Z 18/16Z 18/17Z 18/18Z 18/19Z 18/20Z 18/21Z 18/22Z 18/23Z 19/00Z
Type OBS PRVL PRVL PRVL PRVL PRVL PRVL PRVL PRVL PRVL PRVL PRVL PRVL PRVL
VIS 10 >6 >6 >6 >6 >6 >6 >6 >6 >6 >6 >6 >6 >6
CIG -- -- -- -- -- -- -- -- -- -- -- -- -- --
Cover CLR SKC SKC SKC SKC SKC SKC SKC SKC SKC SKC SKC SKC SKC
FltCat VFR VFR VFR VFR VFR VFR VFR VFR VFR VFR VFR VFR VFR VFR
WX -- -- -- -- -- -- -- -- -- -- -- -- -- --
WDir VRB VRB VRB VRB VRB VRB VRB VRB 280 280 280 280 280 280
WSpd 0 3 3 3 3 3 3 3 11 11 11 11 11 11
WGst -- -- -- -- -- -- -- -- -- -- -- -- -- --
R09/27
XWnd VRB VRB VRB VRB VRB VRB VRB VRB -1 -1 -1 -1 -1 -1
HWnd VRB VRB VRB VRB VRB VRB VRB VRB -11 -11 -11 -11 -11 -11

NOTE: TEMPO conditions in [brackets]. Keep in mind TEMPO conditions might be better (lower impact) than prevailing conditions.

Raw TAF
KSAN 181123Z 1812/1918 VRB03KT P6SM SKC
  FM181900 28011KT P6SM SKC
  FM190200 VRB05KT P6SM FEW008
  FM190600 VRB03KT P6SM VCFG SCT008
  FM190800 VRB03KT 5SM BR VCFG BKN007
  FM191600 VRB04KT 6SM HZ SCT010


Raw METAR
KSAN 181051Z 00000KT 10SM CLR 16/06 A3002 RMK AO2 SLP165 T01610061
KSAN 180951Z 00000KT 10SM FEW010 16/06 A3002 RMK AO2 SLP166 T01610061
KSAN 180851Z 00000KT 10SM FEW010 17/07 A3004 RMK AO2 SLP170 T01720067 58002

METAR Board
Radar Display
Forecast Discussion

TAF Board Legend

Potential Impact
Threat None Slight Moderate High
Visibility (sm) ≥5.1 5.1>X≥3 3>X≥1 <1
Ceiling (100 ft) ≥30.1 30.1>X≥10 10>X≥5 <5
Wind Speed (kt) <10 10≤X<20 20≤X<30 ≥30
Wind Gust (kt) <15 15≤X<25 25≤X<35 ≥35
Weather No Wx Reported VCTS,-TS,-FZRA,SN TS,FZRA +TS,+FZRA,+SN